sensor_id;sensor_type;location;lat;lon;timestamp;P1;durP1;ratioP1;P2;durP2;ratioP2
72645;SDS011;60687;53.876;10.674;2023-07-22T00:03:19;10.15;;;4.20;;
72645;SDS011;60687;53.876;10.674;2023-07-22T00:13:23;10.77;;;4.30;;
72645;SDS011;60687;53.876;10.674;2023-07-22T00:23:28;7.90;;;3.50;;
72645;SDS011;60687;53.876;10.674;2023-07-22T00:33:31;8.13;;;3.40;;
72645;SDS011;60687;53.876;10.674;2023-07-22T00:43:35;7.70;;;3.10;;
72645;SDS011;60687;53.876;10.674;2023-07-22T00:53:38;8.47;;;3.60;;
72645;SDS011;60687;53.876;10.674;2023-07-22T01:03:42;7.60;;;3.37;;
72645;SDS011;60687;53.876;10.674;2023-07-22T01:13:46;8.50;;;3.90;;
72645;SDS011;60687;53.876;10.674;2023-07-22T01:23:50;9.00;;;3.33;;
72645;SDS011;60687;53.876;10.674;2023-07-22T01:33:52;8.10;;;3.80;;
72645;SDS011;60687;53.876;10.674;2023-07-22T01:43:56;10.30;;;4.43;;
72645;SDS011;60687;53.876;10.674;2023-07-22T01:53:58;8.90;;;3.70;;
72645;SDS011;60687;53.876;10.674;2023-07-22T02:04:03;10.10;;;4.57;;
72645;SDS011;60687;53.876;10.674;2023-07-22T02:14:05;9.37;;;3.83;;
72645;SDS011;60687;53.876;10.674;2023-07-22T02:24:10;8.85;;;3.50;;
72645;SDS011;60687;53.876;10.674;2023-07-22T02:34:13;9.67;;;3.77;;
72645;SDS011;60687;53.876;10.674;2023-07-22T02:44:18;11.13;;;4.10;;
72645;SDS011;60687;53.876;10.674;2023-07-22T02:54:20;9.23;;;3.72;;
72645;SDS011;60687;53.876;10.674;2023-07-22T03:04:24;9.33;;;3.93;;
72645;SDS011;60687;53.876;10.674;2023-07-22T03:14:27;11.77;;;4.83;;
72645;SDS011;60687;53.876;10.674;2023-07-22T03:24:30;13.15;;;5.10;;
72645;SDS011;60687;53.876;10.674;2023-07-22T03:34:34;11.55;;;5.10;;
72645;SDS011;60687;53.876;10.674;2023-07-22T03:44:38;12.70;;;5.30;;
72645;SDS011;60687;53.876;10.674;2023-07-22T03:54:41;10.90;;;4.67;;
72645;SDS011;60687;53.876;10.674;2023-07-22T04:04:44;11.70;;;4.88;;
72645;SDS011;60687;53.876;10.674;2023-07-22T04:14:46;10.73;;;4.57;;
72645;SDS011;60687;53.876;10.674;2023-07-22T04:24:50;10.87;;;4.50;;
72645;SDS011;60687;53.876;10.674;2023-07-22T04:34:54;9.40;;;4.32;;
72645;SDS011;60687;53.876;10.674;2023-07-22T04:44:58;9.13;;;3.30;;
72645;SDS011;60687;53.876;10.674;2023-07-22T04:55:00;9.07;;;4.00;;
72645;SDS011;60687;53.876;10.674;2023-07-22T05:05:10;9.75;;;3.80;;
72645;SDS011;60687;53.876;10.674;2023-07-22T05:15:12;9.95;;;4.07;;
72645;SDS011;60687;53.876;10.674;2023-07-22T05:25:16;9.53;;;3.30;;
72645;SDS011;60687;53.876;10.674;2023-07-22T05:35:19;10.33;;;4.40;;
72645;SDS011;60687;53.876;10.674;2023-07-22T05:45:22;9.57;;;3.55;;
72645;SDS011;60687;53.876;10.674;2023-07-22T05:55:25;8.83;;;3.73;;
72645;SDS011;60687;53.876;10.674;2023-07-22T06:05:29;9.87;;;3.30;;
72645;SDS011;60687;53.876;10.674;2023-07-22T06:15:32;7.32;;;2.63;;
72645;SDS011;60687;53.876;10.674;2023-07-22T06:25:36;8.03;;;2.87;;
72645;SDS011;60687;53.876;10.674;2023-07-22T06:35:38;8.27;;;2.40;;
72645;SDS011;60687;53.876;10.674;2023-07-22T06:45:42;7.28;;;2.65;;
72645;SDS011;60687;53.876;10.674;2023-07-22T06:55:50;6.90;;;2.20;;
72645;SDS011;60687;53.876;10.674;2023-07-22T07:05:55;7.20;;;2.00;;
72645;SDS011;60687;53.876;10.674;2023-07-22T07:16:09;6.37;;;1.53;;
72645;SDS011;60687;53.876;10.674;2023-07-22T07:26:26;5.05;;;1.50;;
72645;SDS011;60687;53.876;10.674;2023-07-22T07:36:29;4.50;;;1.27;;
72645;SDS011;60687;53.876;10.674;2023-07-22T07:46:33;5.93;;;1.70;;
72645;SDS011;60687;53.876;10.674;2023-07-22T07:56:36;4.82;;;1.45;;
72645;SDS011;60687;53.876;10.674;2023-07-22T08:06:39;5.63;;;1.57;;
72645;SDS011;60687;53.876;10.674;2023-07-22T08:16:42;4.97;;;1.40;;
72645;SDS011;60687;53.876;10.674;2023-07-22T08:26:46;5.15;;;1.45;;
72645;SDS011;60687;53.876;10.674;2023-07-22T08:36:48;4.10;;;1.10;;
72645;SDS011;60687;53.876;10.674;2023-07-22T08:46:54;4.70;;;1.20;;
72645;SDS011;60687;53.876;10.674;2023-07-22T08:56:59;6.10;;;1.00;;
72645;SDS011;60687;53.876;10.674;2023-07-22T09:07:03;8.48;;;2.17;;
72645;SDS011;60687;53.876;10.674;2023-07-22T09:17:07;8.90;;;3.57;;
72645;SDS011;60687;53.876;10.674;2023-07-22T09:27:11;5.93;;;2.20;;
72645;SDS011;60687;53.876;10.674;2023-07-22T09:37:13;5.30;;;1.60;;
72645;SDS011;60687;53.876;10.674;2023-07-22T09:47:18;4.13;;;1.10;;
72645;SDS011;60687;53.876;10.674;2023-07-22T09:57:20;5.33;;;1.40;;
72645;SDS011;60687;53.876;10.674;2023-07-22T10:07:25;9.43;;;3.40;;
72645;SDS011;60687;53.876;10.674;2023-07-22T10:17:28;5.63;;;1.70;;
72645;SDS011;60687;53.876;10.674;2023-07-22T10:27:32;4.87;;;1.33;;
72645;SDS011;60687;53.876;10.674;2023-07-22T10:37:35;5.03;;;1.43;;
72645;SDS011;60687;53.876;10.674;2023-07-22T10:47:39;5.32;;;1.77;;
72645;SDS011;60687;53.876;10.674;2023-07-22T10:57:48;5.33;;;1.60;;
72645;SDS011;60687;53.876;10.674;2023-07-22T11:07:55;5.03;;;1.40;;
72645;SDS011;60687;53.876;10.674;2023-07-22T11:18:05;4.57;;;1.40;;
72645;SDS011;60687;53.876;10.674;2023-07-22T11:28:10;3.70;;;1.07;;
72645;SDS011;60687;53.876;10.674;2023-07-22T11:38:12;5.33;;;1.40;;
72645;SDS011;60687;53.876;10.674;2023-07-22T11:48:16;4.43;;;1.10;;
72645;SDS011;60687;53.876;10.674;2023-07-22T11:58:23;5.67;;;1.63;;
72645;SDS011;60687;53.876;10.674;2023-07-22T12:08:29;4.77;;;1.17;;
72645;SDS011;60687;53.876;10.674;2023-07-22T12:18:40;5.40;;;1.33;;
72645;SDS011;60687;53.876;10.674;2023-07-22T12:28:44;4.65;;;1.30;;
72645;SDS011;60687;53.876;10.674;2023-07-22T12:38:47;4.20;;;1.40;;
72645;SDS011;60687;53.876;10.674;2023-07-22T12:48:51;5.00;;;1.20;;
72645;SDS011;60687;53.876;10.674;2023-07-22T12:58:53;4.63;;;1.50;;
72645;SDS011;60687;53.876;10.674;2023-07-22T13:08:57;5.77;;;1.60;;
72645;SDS011;60687;53.876;10.674;2023-07-22T13:18:59;5.10;;;1.17;;
72645;SDS011;60687;53.876;10.674;2023-07-22T13:29:05;5.20;;;1.67;;
72645;SDS011;60687;53.876;10.674;2023-07-22T13:39:09;6.20;;;2.30;;
72645;SDS011;60687;53.876;10.674;2023-07-22T13:49:15;6.73;;;2.20;;
72645;SDS011;60687;53.876;10.674;2023-07-22T13:59:17;7.00;;;2.80;;
72645;SDS011;60687;53.876;10.674;2023-07-22T14:09:21;8.68;;;3.20;;
72645;SDS011;60687;53.876;10.674;2023-07-22T14:19:24;7.13;;;2.63;;
72645;SDS011;60687;53.876;10.674;2023-07-22T14:29:28;7.87;;;2.73;;
72645;SDS011;60687;53.876;10.674;2023-07-22T14:39:31;6.45;;;2.20;;
72645;SDS011;60687;53.876;10.674;2023-07-22T14:49:34;7.30;;;2.60;;
72645;SDS011;60687;53.876;10.674;2023-07-22T14:59:37;7.43;;;3.13;;
72645;SDS011;60687;53.876;10.674;2023-07-22T15:09:40;9.15;;;3.13;;
72645;SDS011;60687;53.876;10.674;2023-07-22T15:19:43;9.23;;;3.57;;
72645;SDS011;60687;53.876;10.674;2023-07-22T15:29:46;8.60;;;3.43;;
72645;SDS011;60687;53.876;10.674;2023-07-22T15:39:49;8.80;;;3.70;;
72645;SDS011;60687;53.876;10.674;2023-07-22T15:49:52;8.63;;;3.28;;
72645;SDS011;60687;53.876;10.674;2023-07-22T15:59:54;9.23;;;3.60;;
72645;SDS011;60687;53.876;10.674;2023-07-22T16:09:58;8.23;;;3.10;;
72645;SDS011;60687;53.876;10.674;2023-07-22T16:20:01;9.15;;;3.38;;
72645;SDS011;60687;53.876;10.674;2023-07-22T16:30:07;7.93;;;3.43;;
72645;SDS011;60687;53.876;10.674;2023-07-22T16:40:20;8.17;;;3.30;;
72645;SDS011;60687;53.876;10.674;2023-07-22T16:50:24;7.88;;;3.50;;
72645;SDS011;60687;53.876;10.674;2023-07-22T17:00:27;8.53;;;3.73;;
72645;SDS011;60687;53.876;10.674;2023-07-22T17:10:32;8.63;;;3.57;;
72645;SDS011;60687;53.876;10.674;2023-07-22T17:20:34;9.07;;;3.60;;
72645;SDS011;60687;53.876;10.674;2023-07-22T17:30:38;11.07;;;3.97;;
72645;SDS011;60687;53.876;10.674;2023-07-22T17:40:40;10.93;;;4.20;;
72645;SDS011;60687;53.876;10.674;2023-07-22T17:50:46;9.23;;;4.37;;
72645;SDS011;60687;53.876;10.674;2023-07-22T18:00:49;8.93;;;4.03;;
72645;SDS011;60687;53.876;10.674;2023-07-22T18:10:53;9.93;;;4.40;;
72645;SDS011;60687;53.876;10.674;2023-07-22T18:20:55;9.23;;;4.33;;
72645;SDS011;60687;53.876;10.674;2023-07-22T18:30:59;10.38;;;4.43;;
72645;SDS011;60687;53.876;10.674;2023-07-22T18:41:01;9.43;;;4.13;;
72645;SDS011;60687;53.876;10.674;2023-07-22T18:51:05;9.13;;;4.17;;
72645;SDS011;60687;53.876;10.674;2023-07-22T19:01:07;10.07;;;4.20;;
72645;SDS011;60687;53.876;10.674;2023-07-22T19:11:11;9.60;;;4.30;;
72645;SDS011;60687;53.876;10.674;2023-07-22T19:21:13;9.67;;;4.17;;
72645;SDS011;60687;53.876;10.674;2023-07-22T19:31:17;9.67;;;4.17;;
72645;SDS011;60687;53.876;10.674;2023-07-22T19:41:20;8.88;;;4.25;;
72645;SDS011;60687;53.876;10.674;2023-07-22T19:51:23;9.87;;;4.10;;
72645;SDS011;60687;53.876;10.674;2023-07-22T20:01:26;10.73;;;4.50;;
72645;SDS011;60687;53.876;10.674;2023-07-22T20:11:29;8.73;;;4.00;;
72645;SDS011;60687;53.876;10.674;2023-07-22T20:21:31;10.07;;;4.32;;
72645;SDS011;60687;53.876;10.674;2023-07-22T20:31:35;9.40;;;4.10;;
72645;SDS011;60687;53.876;10.674;2023-07-22T20:41:37;9.43;;;4.00;;
72645;SDS011;60687;53.876;10.674;2023-07-22T20:51:41;8.98;;;4.10;;
72645;SDS011;60687;53.876;10.674;2023-07-22T21:01:44;9.30;;;4.70;;
72645;SDS011;60687;53.876;10.674;2023-07-22T21:11:48;7.70;;;3.70;;
72645;SDS011;60687;53.876;10.674;2023-07-22T21:21:50;10.10;;;4.78;;
72645;SDS011;60687;53.876;10.674;2023-07-22T21:31:53;9.23;;;3.83;;
72645;SDS011;60687;53.876;10.674;2023-07-22T21:41:56;9.63;;;4.83;;
72645;SDS011;60687;53.876;10.674;2023-07-22T21:52:03;9.68;;;4.50;;
72645;SDS011;60687;53.876;10.674;2023-07-22T22:02:06;9.70;;;4.65;;
72645;SDS011;60687;53.876;10.674;2023-07-22T22:12:10;10.80;;;4.60;;
72645;SDS011;60687;53.876;10.674;2023-07-22T22:22:12;9.53;;;3.90;;
72645;SDS011;60687;53.876;10.674;2023-07-22T22:32:16;9.05;;;3.78;;
72645;SDS011;60687;53.876;10.674;2023-07-22T22:42:18;8.27;;;4.07;;
72645;SDS011;60687;53.876;10.674;2023-07-22T22:52:22;9.47;;;3.80;;
72645;SDS011;60687;53.876;10.674;2023-07-22T23:02:45;8.10;;;3.63;;
72645;SDS011;60687;53.876;10.674;2023-07-22T23:12:51;9.17;;;3.60;;
72645;SDS011;60687;53.876;10.674;2023-07-22T23:22:53;9.07;;;3.73;;
72645;SDS011;60687;53.876;10.674;2023-07-22T23:32:57;9.18;;;3.92;;
72645;SDS011;60687;53.876;10.674;2023-07-22T23:42:59;8.32;;;3.78;;
72645;SDS011;60687;53.876;10.674;2023-07-22T23:53:03;8.03;;;3.63;;
